sensor_id;sensor_type;location;lat;lon;timestamp;P1;durP1;ratioP1;P2;durP2;ratioP2
52480;SDS011;38393;52.404;13.532;2023-07-20T00:02:19;10.18;;;7.78;;
52480;SDS011;38393;52.404;13.532;2023-07-20T00:04:44;9.30;;;7.30;;
52480;SDS011;38393;52.404;13.532;2023-07-20T00:07:10;10.95;;;7.63;;
52480;SDS011;38393;52.404;13.532;2023-07-20T00:09:35;9.45;;;7.30;;
52480;SDS011;38393;52.404;13.532;2023-07-20T00:12:01;10.27;;;7.63;;
52480;SDS011;38393;52.404;13.532;2023-07-20T00:14:26;13.90;;;7.55;;
52480;SDS011;38393;52.404;13.532;2023-07-20T00:16:52;11.93;;;7.55;;
52480;SDS011;38393;52.404;13.532;2023-07-20T00:19:24;9.43;;;7.43;;
52480;SDS011;38393;52.404;13.532;2023-07-20T00:21:50;11.40;;;8.15;;
52480;SDS011;38393;52.404;13.532;2023-07-20T00:24:16;13.73;;;8.20;;
52480;SDS011;38393;52.404;13.532;2023-07-20T00:26:41;10.50;;;7.38;;
52480;SDS011;38393;52.404;13.532;2023-07-20T00:29:07;12.18;;;8.35;;
52480;SDS011;38393;52.404;13.532;2023-07-20T00:31:32;11.27;;;8.23;;
52480;SDS011;38393;52.404;13.532;2023-07-20T00:33:59;13.23;;;8.15;;
52480;SDS011;38393;52.404;13.532;2023-07-20T00:36:25;11.55;;;8.20;;
52480;SDS011;38393;52.404;13.532;2023-07-20T00:38:50;10.10;;;7.65;;
52480;SDS011;38393;52.404;13.532;2023-07-20T00:41:16;11.75;;;7.93;;
52480;SDS011;38393;52.404;13.532;2023-07-20T00:43:42;9.70;;;7.80;;
52480;SDS011;38393;52.404;13.532;2023-07-20T00:46:07;12.98;;;8.27;;
52480;SDS011;38393;52.404;13.532;2023-07-20T00:48:34;9.30;;;7.40;;
52480;SDS011;38393;52.404;13.532;2023-07-20T00:51:00;14.07;;;8.13;;
52480;SDS011;38393;52.404;13.532;2023-07-20T00:53:26;10.07;;;7.63;;
52480;SDS011;38393;52.404;13.532;2023-07-20T00:55:52;11.10;;;8.05;;
52480;SDS011;38393;52.404;13.532;2023-07-20T00:58:17;11.05;;;8.48;;
52480;SDS011;38393;52.404;13.532;2023-07-20T01:00:44;11.63;;;7.57;;
52480;SDS011;38393;52.404;13.532;2023-07-20T01:03:09;10.52;;;8.05;;
52480;SDS011;38393;52.404;13.532;2023-07-20T01:06:21;9.90;;;8.32;;
52480;SDS011;38393;52.404;13.532;2023-07-20T01:08:40;10.80;;;7.90;;
52480;SDS011;38393;52.404;13.532;2023-07-20T01:11:23;10.23;;;8.18;;
52480;SDS011;38393;52.404;13.532;2023-07-20T01:14:01;12.40;;;8.73;;
52480;SDS011;38393;52.404;13.532;2023-07-20T01:16:28;11.30;;;8.32;;
52480;SDS011;38393;52.404;13.532;2023-07-20T01:22:09;13.30;;;8.85;;
52480;SDS011;38393;52.404;13.532;2023-07-20T01:25:12;10.55;;;7.95;;
52480;SDS011;38393;52.404;13.532;2023-07-20T01:28:25;12.50;;;8.43;;
52480;SDS011;38393;52.404;13.532;2023-07-20T01:33:50;13.88;;;8.82;;
52480;SDS011;38393;52.404;13.532;2023-07-20T01:36:19;12.20;;;9.30;;
52480;SDS011;38393;52.404;13.532;2023-07-20T01:38:46;12.13;;;8.93;;
52480;SDS011;38393;52.404;13.532;2023-07-20T01:41:12;11.68;;;8.90;;
52480;SDS011;38393;52.404;13.532;2023-07-20T01:43:38;12.63;;;9.38;;
52480;SDS011;38393;52.404;13.532;2023-07-20T01:46:03;15.32;;;9.68;;
52480;SDS011;38393;52.404;13.532;2023-07-20T01:48:29;12.38;;;9.00;;
52480;SDS011;38393;52.404;13.532;2023-07-20T01:50:54;15.18;;;9.73;;
52480;SDS011;38393;52.404;13.532;2023-07-20T01:53:20;15.93;;;10.30;;
52480;SDS011;38393;52.404;13.532;2023-07-20T01:55:46;16.53;;;10.30;;
52480;SDS011;38393;52.404;13.532;2023-07-20T01:58:11;14.27;;;11.45;;
52480;SDS011;38393;52.404;13.532;2023-07-20T02:00:37;14.18;;;11.25;;
52480;SDS011;38393;52.404;13.532;2023-07-20T02:03:03;15.50;;;11.90;;
52480;SDS011;38393;52.404;13.532;2023-07-20T02:05:29;15.48;;;12.15;;
52480;SDS011;38393;52.404;13.532;2023-07-20T02:07:54;16.15;;;12.32;;
52480;SDS011;38393;52.404;13.532;2023-07-20T02:10:20;15.30;;;11.82;;
52480;SDS011;38393;52.404;13.532;2023-07-20T02:12:46;19.23;;;12.00;;
52480;SDS011;38393;52.404;13.532;2023-07-20T02:15:12;16.08;;;11.55;;
52480;SDS011;38393;52.404;13.532;2023-07-20T02:17:38;16.00;;;11.02;;
52480;SDS011;38393;52.404;13.532;2023-07-20T02:20:06;13.73;;;10.85;;
52480;SDS011;38393;52.404;13.532;2023-07-20T02:22:34;16.38;;;11.63;;
52480;SDS011;38393;52.404;13.532;2023-07-20T02:24:59;13.70;;;11.20;;
52480;SDS011;38393;52.404;13.532;2023-07-20T02:27:25;16.57;;;11.40;;
52480;SDS011;38393;52.404;13.532;2023-07-20T02:29:50;16.02;;;11.00;;
52480;SDS011;38393;52.404;13.532;2023-07-20T02:32:15;14.82;;;10.40;;
52480;SDS011;38393;52.404;13.532;2023-07-20T02:34:41;17.20;;;11.20;;
52480;SDS011;38393;52.404;13.532;2023-07-20T02:37:06;14.05;;;9.80;;
52480;SDS011;38393;52.404;13.532;2023-07-20T02:39:32;13.48;;;10.00;;
52480;SDS011;38393;52.404;13.532;2023-07-20T02:41:58;12.95;;;9.30;;
52480;SDS011;38393;52.404;13.532;2023-07-20T02:44:23;13.75;;;10.13;;
52480;SDS011;38393;52.404;13.532;2023-07-20T02:46:49;12.40;;;9.52;;
52480;SDS011;38393;52.404;13.532;2023-07-20T02:49:14;12.98;;;9.52;;
52480;SDS011;38393;52.404;13.532;2023-07-20T02:51:40;12.18;;;9.65;;
52480;SDS011;38393;52.404;13.532;2023-07-20T02:54:06;12.43;;;9.70;;
52480;SDS011;38393;52.404;13.532;2023-07-20T02:56:31;13.23;;;10.60;;
52480;SDS011;38393;52.404;13.532;2023-07-20T02:58:57;13.43;;;9.77;;
52480;SDS011;38393;52.404;13.532;2023-07-20T03:01:22;12.68;;;10.00;;
52480;SDS011;38393;52.404;13.532;2023-07-20T03:03:48;14.60;;;10.20;;
52480;SDS011;38393;52.404;13.532;2023-07-20T03:06:13;13.80;;;10.25;;
52480;SDS011;38393;52.404;13.532;2023-07-20T03:08:40;13.30;;;9.80;;
52480;SDS011;38393;52.404;13.532;2023-07-20T03:11:06;11.93;;;10.40;;
52480;SDS011;38393;52.404;13.532;2023-07-20T03:13:32;12.23;;;10.60;;
52480;SDS011;38393;52.404;13.532;2023-07-20T03:15:58;12.63;;;10.17;;
52480;SDS011;38393;52.404;13.532;2023-07-20T03:18:23;14.47;;;10.77;;
52480;SDS011;38393;52.404;13.532;2023-07-20T03:20:49;13.23;;;11.57;;
52480;SDS011;38393;52.404;13.532;2023-07-20T03:23:14;18.52;;;12.05;;
52480;SDS011;38393;52.404;13.532;2023-07-20T03:25:41;16.60;;;13.23;;
52480;SDS011;38393;52.404;13.532;2023-07-20T03:28:06;17.80;;;13.63;;
52480;SDS011;38393;52.404;13.532;2023-07-20T03:30:32;19.83;;;13.60;;
52480;SDS011;38393;52.404;13.532;2023-07-20T03:32:58;17.52;;;14.00;;
52480;SDS011;38393;52.404;13.532;2023-07-20T03:35:23;17.63;;;13.87;;
52480;SDS011;38393;52.404;13.532;2023-07-20T03:37:49;20.77;;;14.53;;
52480;SDS011;38393;52.404;13.532;2023-07-20T03:40:14;23.08;;;14.50;;
52480;SDS011;38393;52.404;13.532;2023-07-20T03:42:40;19.40;;;14.82;;
52480;SDS011;38393;52.404;13.532;2023-07-20T03:45:06;19.30;;;14.63;;
52480;SDS011;38393;52.404;13.532;2023-07-20T03:47:32;19.42;;;14.70;;
52480;SDS011;38393;52.404;13.532;2023-07-20T03:49:58;22.42;;;14.95;;
52480;SDS011;38393;52.404;13.532;2023-07-20T03:52:23;21.60;;;15.97;;
52480;SDS011;38393;52.404;13.532;2023-07-20T03:54:49;19.67;;;15.10;;
52480;SDS011;38393;52.404;13.532;2023-07-20T03:57:16;21.05;;;14.48;;
52480;SDS011;38393;52.404;13.532;2023-07-20T03:59:44;19.20;;;14.83;;
52480;SDS011;38393;52.404;13.532;2023-07-20T04:02:10;18.50;;;14.50;;
52480;SDS011;38393;52.404;13.532;2023-07-20T04:04:35;20.80;;;14.98;;
52480;SDS011;38393;52.404;13.532;2023-07-20T04:07:01;21.00;;;15.77;;
52480;SDS011;38393;52.404;13.532;2023-07-20T04:09:26;22.27;;;15.55;;
52480;SDS011;38393;52.404;13.532;2023-07-20T04:11:52;20.20;;;15.15;;
52480;SDS011;38393;52.404;13.532;2023-07-20T04:14:17;25.65;;;15.43;;
52480;SDS011;38393;52.404;13.532;2023-07-20T04:16:43;21.90;;;15.35;;
52480;SDS011;38393;52.404;13.532;2023-07-20T04:19:10;21.20;;;14.90;;
52480;SDS011;38393;52.404;13.532;2023-07-20T04:21:39;20.77;;;16.15;;
52480;SDS011;38393;52.404;13.532;2023-07-20T04:24:06;22.15;;;15.30;;
52480;SDS011;38393;52.404;13.532;2023-07-20T04:26:31;19.75;;;15.45;;
52480;SDS011;38393;52.404;13.532;2023-07-20T04:28:57;19.83;;;14.60;;
52480;SDS011;38393;52.404;13.532;2023-07-20T04:31:24;21.38;;;14.63;;
52480;SDS011;38393;52.404;13.532;2023-07-20T04:33:49;20.17;;;14.60;;
52480;SDS011;38393;52.404;13.532;2023-07-20T04:36:15;20.23;;;14.07;;
52480;SDS011;38393;52.404;13.532;2023-07-20T04:38:44;19.08;;;15.35;;
52480;SDS011;38393;52.404;13.532;2023-07-20T04:41:10;18.50;;;14.13;;
52480;SDS011;38393;52.404;13.532;2023-07-20T04:43:37;19.17;;;13.65;;
52480;SDS011;38393;52.404;13.532;2023-07-20T04:46:06;18.98;;;13.18;;
52480;SDS011;38393;52.404;13.532;2023-07-20T04:48:32;19.90;;;13.65;;
52480;SDS011;38393;52.404;13.532;2023-07-20T04:50:57;20.55;;;13.63;;
52480;SDS011;38393;52.404;13.532;2023-07-20T04:53:23;19.70;;;13.40;;
52480;SDS011;38393;52.404;13.532;2023-07-20T04:55:49;17.48;;;12.43;;
52480;SDS011;38393;52.404;13.532;2023-07-20T04:58:17;15.70;;;12.32;;
52480;SDS011;38393;52.404;13.532;2023-07-20T05:00:43;15.65;;;12.85;;
52480;SDS011;38393;52.404;13.532;2023-07-20T05:03:09;21.63;;;12.73;;
52480;SDS011;38393;52.404;13.532;2023-07-20T05:05:34;16.60;;;12.90;;
52480;SDS011;38393;52.404;13.532;2023-07-20T05:08:00;16.05;;;12.45;;
52480;SDS011;38393;52.404;13.532;2023-07-20T05:10:25;17.40;;;12.05;;
52480;SDS011;38393;52.404;13.532;2023-07-20T05:12:51;15.98;;;12.05;;
52480;SDS011;38393;52.404;13.532;2023-07-20T05:15:16;18.27;;;12.63;;
52480;SDS011;38393;52.404;13.532;2023-07-20T05:17:42;14.32;;;12.32;;
52480;SDS011;38393;52.404;13.532;2023-07-20T05:20:07;16.92;;;11.90;;
52480;SDS011;38393;52.404;13.532;2023-07-20T05:22:37;16.20;;;12.43;;
52480;SDS011;38393;52.404;13.532;2023-07-20T05:25:04;18.13;;;12.25;;
52480;SDS011;38393;52.404;13.532;2023-07-20T05:27:33;18.17;;;12.43;;
52480;SDS011;38393;52.404;13.532;2023-07-20T05:30:01;20.85;;;12.90;;
52480;SDS011;38393;52.404;13.532;2023-07-20T05:32:26;15.35;;;12.20;;
52480;SDS011;38393;52.404;13.532;2023-07-20T05:34:53;14.63;;;12.20;;
52480;SDS011;38393;52.404;13.532;2023-07-20T05:37:19;16.80;;;12.20;;
52480;SDS011;38393;52.404;13.532;2023-07-20T05:39:45;15.38;;;12.35;;
52480;SDS011;38393;52.404;13.532;2023-07-20T05:42:10;17.05;;;12.40;;
52480;SDS011;38393;52.404;13.532;2023-07-20T05:44:35;14.93;;;12.02;;
52480;SDS011;38393;52.404;13.532;2023-07-20T05:47:01;17.33;;;12.07;;
52480;SDS011;38393;52.404;13.532;2023-07-20T05:49:27;16.00;;;12.02;;
52480;SDS011;38393;52.404;13.532;2023-07-20T05:51:54;15.48;;;11.63;;
52480;SDS011;38393;52.404;13.532;2023-07-20T05:54:20;16.23;;;10.77;;
52480;SDS011;38393;52.404;13.532;2023-07-20T05:56:46;12.63;;;10.48;;
52480;SDS011;38393;52.404;13.532;2023-07-20T05:59:12;12.98;;;10.88;;
52480;SDS011;38393;52.404;13.532;2023-07-20T06:01:37;12.35;;;10.15;;
52480;SDS011;38393;52.404;13.532;2023-07-20T06:04:03;12.30;;;9.95;;
52480;SDS011;38393;52.404;13.532;2023-07-20T06:06:28;12.07;;;10.00;;
52480;SDS011;38393;52.404;13.532;2023-07-20T06:08:54;11.68;;;9.05;;
52480;SDS011;38393;52.404;13.532;2023-07-20T06:11:20;10.90;;;8.88;;
52480;SDS011;38393;52.404;13.532;2023-07-20T06:13:45;13.27;;;9.10;;
52480;SDS011;38393;52.404;13.532;2023-07-20T06:16:11;11.95;;;8.27;;
52480;SDS011;38393;52.404;13.532;2023-07-20T06:18:36;12.93;;;9.07;;
52480;SDS011;38393;52.404;13.532;2023-07-20T06:21:02;12.10;;;9.32;;
52480;SDS011;38393;52.404;13.532;2023-07-20T06:23:27;15.52;;;9.68;;
52480;SDS011;38393;52.404;13.532;2023-07-20T06:25:53;12.70;;;9.32;;
52480;SDS011;38393;52.404;13.532;2023-07-20T06:28:18;13.05;;;8.98;;
52480;SDS011;38393;52.404;13.532;2023-07-20T06:30:43;12.07;;;9.32;;
52480;SDS011;38393;52.404;13.532;2023-07-20T06:33:09;10.07;;;8.38;;
52480;SDS011;38393;52.404;13.532;2023-07-20T06:35:34;12.38;;;7.78;;
52480;SDS011;38393;52.404;13.532;2023-07-20T06:38:01;7.88;;;7.03;;
52480;SDS011;38393;52.404;13.532;2023-07-20T06:40:28;7.43;;;6.03;;
52480;SDS011;38393;52.404;13.532;2023-07-20T06:42:54;8.82;;;6.47;;
52480;SDS011;38393;52.404;13.532;2023-07-20T06:45:20;7.32;;;6.15;;
52480;SDS011;38393;52.404;13.532;2023-07-20T06:47:46;7.57;;;6.22;;
52480;SDS011;38393;52.404;13.532;2023-07-20T06:50:11;9.25;;;6.75;;
52480;SDS011;38393;52.404;13.532;2023-07-20T06:52:37;10.75;;;6.68;;
52480;SDS011;38393;52.404;13.532;2023-07-20T06:55:03;8.65;;;6.55;;
52480;SDS011;38393;52.404;13.532;2023-07-20T06:57:28;8.15;;;6.50;;
52480;SDS011;38393;52.404;13.532;2023-07-20T06:59:54;8.85;;;7.03;;
52480;SDS011;38393;52.404;13.532;2023-07-20T07:02:19;7.95;;;6.53;;
52480;SDS011;38393;52.404;13.532;2023-07-20T07:04:45;8.60;;;6.38;;
52480;SDS011;38393;52.404;13.532;2023-07-20T07:07:13;9.82;;;5.88;;
52480;SDS011;38393;52.404;13.532;2023-07-20T07:09:39;7.45;;;6.30;;
52480;SDS011;38393;52.404;13.532;2023-07-20T07:12:05;7.90;;;5.50;;
52480;SDS011;38393;52.404;13.532;2023-07-20T07:14:31;6.28;;;5.07;;
52480;SDS011;38393;52.404;13.532;2023-07-20T07:16:56;6.43;;;4.40;;
52480;SDS011;38393;52.404;13.532;2023-07-20T07:19:21;6.18;;;4.50;;
52480;SDS011;38393;52.404;13.532;2023-07-20T07:21:47;6.15;;;4.05;;
52480;SDS011;38393;52.404;13.532;2023-07-20T07:24:13;5.53;;;4.10;;
52480;SDS011;38393;52.404;13.532;2023-07-20T07:26:38;4.63;;;4.20;;
52480;SDS011;38393;52.404;13.532;2023-07-20T07:29:04;7.90;;;4.60;;
52480;SDS011;38393;52.404;13.532;2023-07-20T07:31:29;6.10;;;4.10;;
52480;SDS011;38393;52.404;13.532;2023-07-20T07:33:55;4.75;;;3.45;;
52480;SDS011;38393;52.404;13.532;2023-07-20T07:36:21;4.25;;;2.83;;
52480;SDS011;38393;52.404;13.532;2023-07-20T07:38:49;3.22;;;2.65;;
52480;SDS011;38393;52.404;13.532;2023-07-20T07:41:14;4.32;;;3.30;;
52480;SDS011;38393;52.404;13.532;2023-07-20T07:43:40;4.13;;;2.65;;
52480;SDS011;38393;52.404;13.532;2023-07-20T07:46:05;4.78;;;2.65;;
52480;SDS011;38393;52.404;13.532;2023-07-20T07:48:31;3.20;;;2.45;;
52480;SDS011;38393;52.404;13.532;2023-07-20T07:50:56;2.50;;;2.20;;
52480;SDS011;38393;52.404;13.532;2023-07-20T07:53:22;4.28;;;1.67;;
52480;SDS011;38393;52.404;13.532;2023-07-20T07:55:47;2.72;;;2.00;;
52480;SDS011;38393;52.404;13.532;2023-07-20T07:58:13;2.13;;;1.70;;
52480;SDS011;38393;52.404;13.532;2023-07-20T08:00:39;1.98;;;1.20;;
52480;SDS011;38393;52.404;13.532;2023-07-20T08:03:06;3.35;;;1.63;;
52480;SDS011;38393;52.404;13.532;2023-07-20T08:05:31;1.70;;;1.50;;
52480;SDS011;38393;52.404;13.532;2023-07-20T08:07:58;2.65;;;1.70;;
52480;SDS011;38393;52.404;13.532;2023-07-20T08:10:23;3.15;;;1.65;;
52480;SDS011;38393;52.404;13.532;2023-07-20T08:12:49;6.70;;;1.60;;
52480;SDS011;38393;52.404;13.532;2023-07-20T08:15:14;2.85;;;1.35;;
52480;SDS011;38393;52.404;13.532;2023-07-20T08:17:41;2.63;;;1.23;;
52480;SDS011;38393;52.404;13.532;2023-07-20T08:20:07;3.45;;;1.50;;
52480;SDS011;38393;52.404;13.532;2023-07-20T08:22:36;1.98;;;1.25;;
52480;SDS011;38393;52.404;13.532;2023-07-20T08:25:01;1.83;;;1.30;;
52480;SDS011;38393;52.404;13.532;2023-07-20T08:27:27;1.83;;;1.20;;
52480;SDS011;38393;52.404;13.532;2023-07-20T08:29:52;1.77;;;1.30;;
52480;SDS011;38393;52.404;13.532;2023-07-20T08:32:18;3.88;;;1.10;;
52480;SDS011;38393;52.404;13.532;2023-07-20T08:34:43;1.33;;;1.20;;
52480;SDS011;38393;52.404;13.532;2023-07-20T08:37:09;3.75;;;1.40;;
52480;SDS011;38393;52.404;13.532;2023-07-20T08:39:35;3.97;;;1.50;;
52480;SDS011;38393;52.404;13.532;2023-07-20T08:42:00;2.85;;;1.17;;
52480;SDS011;38393;52.404;13.532;2023-07-20T08:44:29;1.35;;;1.25;;
52480;SDS011;38393;52.404;13.532;2023-07-20T08:46:57;3.65;;;1.33;;
52480;SDS011;38393;52.404;13.532;2023-07-20T08:49:23;4.00;;;1.30;;
52480;SDS011;38393;52.404;13.532;2023-07-20T08:51:49;2.08;;;1.30;;
52480;SDS011;38393;52.404;13.532;2023-07-20T08:54:16;1.90;;;1.48;;
52480;SDS011;38393;52.404;13.532;2023-07-20T08:56:42;1.35;;;1.02;;
52480;SDS011;38393;52.404;13.532;2023-07-20T08:59:10;2.35;;;0.90;;
52480;SDS011;38393;52.404;13.532;2023-07-20T09:01:37;1.88;;;1.08;;
52480;SDS011;38393;52.404;13.532;2023-07-20T09:04:04;2.03;;;1.17;;
52480;SDS011;38393;52.404;13.532;2023-07-20T09:06:30;1.75;;;1.15;;
52480;SDS011;38393;52.404;13.532;2023-07-20T09:08:56;5.28;;;1.45;;
52480;SDS011;38393;52.404;13.532;2023-07-20T09:11:22;1.55;;;1.00;;
52480;SDS011;38393;52.404;13.532;2023-07-20T09:13:47;3.17;;;1.25;;
52480;SDS011;38393;52.404;13.532;2023-07-20T09:16:13;2.10;;;0.90;;
52480;SDS011;38393;52.404;13.532;2023-07-20T09:18:42;1.70;;;1.15;;
52480;SDS011;38393;52.404;13.532;2023-07-20T09:21:07;1.90;;;1.20;;
52480;SDS011;38393;52.404;13.532;2023-07-20T09:23:33;2.45;;;1.10;;
52480;SDS011;38393;52.404;13.532;2023-07-20T09:26:09;3.17;;;1.05;;
52480;SDS011;38393;52.404;13.532;2023-07-20T09:28:42;3.88;;;1.08;;
52480;SDS011;38393;52.404;13.532;2023-07-20T09:31:15;1.13;;;1.00;;
52480;SDS011;38393;52.404;13.532;2023-07-20T09:33:42;1.17;;;0.90;;
52480;SDS011;38393;52.404;13.532;2023-07-20T09:36:09;3.47;;;1.00;;
52480;SDS011;38393;52.404;13.532;2023-07-20T09:38:36;1.00;;;0.90;;
52480;SDS011;38393;52.404;13.532;2023-07-20T09:41:02;1.45;;;0.70;;
52480;SDS011;38393;52.404;13.532;2023-07-20T09:43:30;3.17;;;1.00;;
52480;SDS011;38393;52.404;13.532;2023-07-20T09:45:57;3.80;;;1.00;;
52480;SDS011;38393;52.404;13.532;2023-07-20T09:48:23;3.00;;;0.95;;
52480;SDS011;38393;52.404;13.532;2023-07-20T09:50:51;1.75;;;0.90;;
52480;SDS011;38393;52.404;13.532;2023-07-20T09:53:17;1.52;;;0.80;;
52480;SDS011;38393;52.404;13.532;2023-07-20T09:55:46;1.15;;;0.90;;
52480;SDS011;38393;52.404;13.532;2023-07-20T09:58:13;1.65;;;0.80;;
52480;SDS011;38393;52.404;13.532;2023-07-20T10:00:39;0.90;;;0.90;;
52480;SDS011;38393;52.404;13.532;2023-07-20T10:03:08;1.35;;;0.90;;
52480;SDS011;38393;52.404;13.532;2023-07-20T10:05:36;2.40;;;0.80;;
52480;SDS011;38393;52.404;13.532;2023-07-20T10:08:04;1.58;;;0.90;;
52480;SDS011;38393;52.404;13.532;2023-07-20T10:10:33;1.48;;;0.85;;
52480;SDS011;38393;52.404;13.532;2023-07-20T10:13:00;1.00;;;0.90;;
52480;SDS011;38393;52.404;13.532;2023-07-20T10:15:35;1.70;;;1.10;;
52480;SDS011;38393;52.404;13.532;2023-07-20T10:20:42;2.67;;;0.95;;
52480;SDS011;38393;52.404;13.532;2023-07-20T10:23:09;2.05;;;1.00;;
52480;SDS011;38393;52.404;13.532;2023-07-20T10:25:35;2.47;;;1.25;;
52480;SDS011;38393;52.404;13.532;2023-07-20T10:28:04;2.20;;;1.13;;
52480;SDS011;38393;52.404;13.532;2023-07-20T10:30:31;2.97;;;1.20;;
52480;SDS011;38393;52.404;13.532;2023-07-20T10:32:58;1.15;;;0.93;;
52480;SDS011;38393;52.404;13.532;2023-07-20T10:35:27;4.65;;;1.20;;
52480;SDS011;38393;52.404;13.532;2023-07-20T10:37:54;1.50;;;0.90;;
52480;SDS011;38393;52.404;13.532;2023-07-20T10:40:25;1.58;;;1.15;;
52480;SDS011;38393;52.404;13.532;2023-07-20T10:42:58;2.13;;;1.20;;
52480;SDS011;38393;52.404;13.532;2023-07-20T10:48:14;2.80;;;1.30;;
52480;SDS011;38393;52.404;13.532;2023-07-20T10:50:41;4.32;;;1.20;;
52480;SDS011;38393;52.404;13.532;2023-07-20T10:53:11;1.80;;;1.10;;
52480;SDS011;38393;52.404;13.532;2023-07-20T10:55:39;2.95;;;1.00;;
52480;SDS011;38393;52.404;13.532;2023-07-20T10:58:11;2.05;;;0.90;;
52480;SDS011;38393;52.404;13.532;2023-07-20T11:00:55;1.38;;;1.13;;
52480;SDS011;38393;52.404;13.532;2023-07-20T11:03:30;4.07;;;1.02;;
52480;SDS011;38393;52.404;13.532;2023-07-20T11:06:29;2.97;;;1.33;;
52480;SDS011;38393;52.404;13.532;2023-07-20T11:08:49;1.80;;;1.10;;
52480;SDS011;38393;52.404;13.532;2023-07-20T11:11:33;2.13;;;1.15;;
52480;SDS011;38393;52.404;13.532;2023-07-20T11:14:43;1.88;;;1.02;;
52480;SDS011;38393;52.404;13.532;2023-07-20T11:16:50;2.65;;;1.20;;
52480;SDS011;38393;52.404;13.532;2023-07-20T11:19:19;2.60;;;1.17;;
52480;SDS011;38393;52.404;13.532;2023-07-20T11:21:55;2.30;;;1.10;;
52480;SDS011;38393;52.404;13.532;2023-07-20T11:24:22;2.53;;;1.40;;
52480;SDS011;38393;52.404;13.532;2023-07-20T11:26:48;2.72;;;1.30;;
52480;SDS011;38393;52.404;13.532;2023-07-20T11:29:18;3.42;;;1.40;;
52480;SDS011;38393;52.404;13.532;2023-07-20T11:31:46;2.50;;;1.50;;
52480;SDS011;38393;52.404;13.532;2023-07-20T11:34:16;1.30;;;1.00;;
52480;SDS011;38393;52.404;13.532;2023-07-20T11:36:46;3.10;;;1.10;;
52480;SDS011;38393;52.404;13.532;2023-07-20T11:39:16;2.17;;;1.00;;
52480;SDS011;38393;52.404;13.532;2023-07-20T11:41:46;4.20;;;1.15;;
52480;SDS011;38393;52.404;13.532;2023-07-20T11:44:13;2.67;;;1.35;;
52480;SDS011;38393;52.404;13.532;2023-07-20T11:46:39;1.23;;;1.13;;
52480;SDS011;38393;52.404;13.532;2023-07-20T11:49:07;1.38;;;0.90;;
52480;SDS011;38393;52.404;13.532;2023-07-20T11:51:32;3.85;;;1.10;;
52480;SDS011;38393;52.404;13.532;2023-07-20T11:53:58;2.03;;;1.10;;
52480;SDS011;38393;52.404;13.532;2023-07-20T11:56:26;1.88;;;1.00;;
52480;SDS011;38393;52.404;13.532;2023-07-20T11:58:55;1.95;;;0.88;;
52480;SDS011;38393;52.404;13.532;2023-07-20T12:01:24;4.63;;;0.75;;
52480;SDS011;38393;52.404;13.532;2023-07-20T12:03:50;1.20;;;0.80;;
52480;SDS011;38393;52.404;13.532;2023-07-20T12:06:16;0.90;;;0.75;;
52480;SDS011;38393;52.404;13.532;2023-07-20T12:08:42;1.25;;;0.80;;
52480;SDS011;38393;52.404;13.532;2023-07-20T12:11:09;1.63;;;0.90;;
52480;SDS011;38393;52.404;13.532;2023-07-20T12:13:35;3.17;;;1.00;;
52480;SDS011;38393;52.404;13.532;2023-07-20T12:16:10;1.17;;;0.73;;
52480;SDS011;38393;52.404;13.532;2023-07-20T12:18:36;1.90;;;1.00;;
52480;SDS011;38393;52.404;13.532;2023-07-20T12:21:02;1.75;;;0.90;;
52480;SDS011;38393;52.404;13.532;2023-07-20T12:23:34;2.53;;;0.80;;
52480;SDS011;38393;52.404;13.532;2023-07-20T12:26:06;1.67;;;0.80;;
52480;SDS011;38393;52.404;13.532;2023-07-20T12:28:33;1.15;;;0.90;;
52480;SDS011;38393;52.404;13.532;2023-07-20T12:31:00;4.55;;;0.80;;
52480;SDS011;38393;52.404;13.532;2023-07-20T12:33:26;2.10;;;0.80;;
52480;SDS011;38393;52.404;13.532;2023-07-20T12:35:51;1.48;;;0.80;;
52480;SDS011;38393;52.404;13.532;2023-07-20T12:38:20;4.10;;;0.80;;
52480;SDS011;38393;52.404;13.532;2023-07-20T12:40:46;0.80;;;0.70;;
52480;SDS011;38393;52.404;13.532;2023-07-20T12:43:12;1.77;;;0.88;;
52480;SDS011;38393;52.404;13.532;2023-07-20T12:45:37;1.10;;;0.80;;
52480;SDS011;38393;52.404;13.532;2023-07-20T12:48:03;1.33;;;0.90;;
52480;SDS011;38393;52.404;13.532;2023-07-20T12:50:29;2.15;;;0.70;;
52480;SDS011;38393;52.404;13.532;2023-07-20T12:52:54;1.17;;;0.70;;
52480;SDS011;38393;52.404;13.532;2023-07-20T12:55:20;1.17;;;0.80;;
52480;SDS011;38393;52.404;13.532;2023-07-20T12:57:45;0.77;;;0.70;;
52480;SDS011;38393;52.404;13.532;2023-07-20T13:00:11;2.25;;;0.80;;
52480;SDS011;38393;52.404;13.532;2023-07-20T13:02:39;2.00;;;0.80;;
52480;SDS011;38393;52.404;13.532;2023-07-20T13:05:04;3.10;;;0.90;;
52480;SDS011;38393;52.404;13.532;2023-07-20T13:07:30;0.77;;;0.65;;
52480;SDS011;38393;52.404;13.532;2023-07-20T13:09:57;1.58;;;0.60;;
52480;SDS011;38393;52.404;13.532;2023-07-20T13:12:27;0.70;;;0.60;;
52480;SDS011;38393;52.404;13.532;2023-07-20T13:14:54;2.05;;;0.80;;
52480;SDS011;38393;52.404;13.532;2023-07-20T13:17:20;1.95;;;1.00;;
52480;SDS011;38393;52.404;13.532;2023-07-20T13:19:45;1.00;;;0.77;;
52480;SDS011;38393;52.404;13.532;2023-07-20T13:22:11;0.90;;;0.75;;
52480;SDS011;38393;52.404;13.532;2023-07-20T13:24:36;3.88;;;0.80;;
52480;SDS011;38393;52.404;13.532;2023-07-20T13:27:02;2.47;;;0.80;;
52480;SDS011;38393;52.404;13.532;2023-07-20T13:29:28;1.55;;;0.98;;
52480;SDS011;38393;52.404;13.532;2023-07-20T13:31:53;2.25;;;1.00;;
52480;SDS011;38393;52.404;13.532;2023-07-20T13:34:19;1.80;;;0.70;;
52480;SDS011;38393;52.404;13.532;2023-07-20T13:36:44;2.17;;;0.60;;
52480;SDS011;38393;52.404;13.532;2023-07-20T13:39:09;6.18;;;0.70;;
52480;SDS011;38393;52.404;13.532;2023-07-20T13:41:35;2.13;;;0.60;;
52480;SDS011;38393;52.404;13.532;2023-07-20T13:44:00;1.27;;;0.70;;
52480;SDS011;38393;52.404;13.532;2023-07-20T13:46:26;0.80;;;0.75;;
52480;SDS011;38393;52.404;13.532;2023-07-20T13:48:51;0.98;;;0.77;;
52480;SDS011;38393;52.404;13.532;2023-07-20T13:51:17;1.90;;;0.80;;
52480;SDS011;38393;52.404;13.532;2023-07-20T13:53:44;1.63;;;0.90;;
52480;SDS011;38393;52.404;13.532;2023-07-20T13:56:11;1.63;;;0.82;;
52480;SDS011;38393;52.404;13.532;2023-07-20T13:58:36;4.07;;;0.85;;
52480;SDS011;38393;52.404;13.532;2023-07-20T14:01:02;1.45;;;0.90;;
52480;SDS011;38393;52.404;13.532;2023-07-20T14:03:27;0.82;;;0.73;;
52480;SDS011;38393;52.404;13.532;2023-07-20T14:05:53;1.10;;;0.85;;
52480;SDS011;38393;52.404;13.532;2023-07-20T14:08:18;3.38;;;0.70;;
52480;SDS011;38393;52.404;13.532;2023-07-20T14:10:44;3.13;;;0.70;;
52480;SDS011;38393;52.404;13.532;2023-07-20T14:13:09;1.38;;;0.63;;
52480;SDS011;38393;52.404;13.532;2023-07-20T14:15:34;1.02;;;0.73;;
52480;SDS011;38393;52.404;13.532;2023-07-20T14:18:00;1.38;;;0.70;;
52480;SDS011;38393;52.404;13.532;2023-07-20T14:20:25;0.82;;;0.82;;
52480;SDS011;38393;52.404;13.532;2023-07-20T14:22:51;1.45;;;0.65;;
52480;SDS011;38393;52.404;13.532;2023-07-20T14:25:16;0.80;;;0.60;;
52480;SDS011;38393;52.404;13.532;2023-07-20T14:27:42;1.30;;;0.60;;
52480;SDS011;38393;52.404;13.532;2023-07-20T14:30:07;1.75;;;0.80;;
52480;SDS011;38393;52.404;13.532;2023-07-20T14:32:34;0.63;;;0.60;;
52480;SDS011;38393;52.404;13.532;2023-07-20T14:34:59;1.33;;;0.60;;
52480;SDS011;38393;52.404;13.532;2023-07-20T14:37:25;2.42;;;0.73;;